sensor_id;sensor_type;location;lat;lon;timestamp;P1;durP1;ratioP1;P2;durP2;ratioP2
80229;SDS011;69540;42.136;24.742;2024-02-23T00:00:00;14.52;;;8.93;;
80229;SDS011;69540;42.136;24.742;2024-02-23T00:02:30;12.43;;;9.43;;
80229;SDS011;69540;42.136;24.742;2024-02-23T00:04:56;12.68;;;9.57;;
80229;SDS011;69540;42.136;24.742;2024-02-23T00:07:22;13.43;;;9.85;;
80229;SDS011;69540;42.136;24.742;2024-02-23T00:09:47;13.48;;;10.05;;
80229;SDS011;69540;42.136;24.742;2024-02-23T00:12:13;11.00;;;9.40;;
80229;SDS011;69540;42.136;24.742;2024-02-23T00:14:39;11.05;;;9.30;;
80229;SDS011;69540;42.136;24.742;2024-02-23T00:17:05;14.27;;;9.73;;
80229;SDS011;69540;42.136;24.742;2024-02-23T00:19:31;10.80;;;9.35;;
80229;SDS011;69540;42.136;24.742;2024-02-23T00:21:57;12.40;;;9.73;;
80229;SDS011;69540;42.136;24.742;2024-02-23T00:24:24;12.77;;;10.77;;
80229;SDS011;69540;42.136;24.742;2024-02-23T00:26:50;15.98;;;9.27;;
80229;SDS011;69540;42.136;24.742;2024-02-23T00:29:16;13.50;;;9.98;;
80229;SDS011;69540;42.136;24.742;2024-02-23T00:31:42;16.25;;;10.35;;
80229;SDS011;69540;42.136;24.742;2024-02-23T00:34:10;13.10;;;10.02;;
80229;SDS011;69540;42.136;24.742;2024-02-23T00:36:41;13.70;;;10.40;;
80229;SDS011;69540;42.136;24.742;2024-02-23T00:39:07;12.63;;;10.68;;
80229;SDS011;69540;42.136;24.742;2024-02-23T00:41:34;15.45;;;11.38;;
80229;SDS011;69540;42.136;24.742;2024-02-23T00:44:00;15.65;;;10.95;;
80229;SDS011;69540;42.136;24.742;2024-02-23T00:46:26;15.63;;;11.10;;
80229;SDS011;69540;42.136;24.742;2024-02-23T00:48:52;14.20;;;11.30;;
80229;SDS011;69540;42.136;24.742;2024-02-23T00:51:19;15.05;;;11.57;;
80229;SDS011;69540;42.136;24.742;2024-02-23T00:53:45;15.45;;;11.23;;
80229;SDS011;69540;42.136;24.742;2024-02-23T00:56:10;14.80;;;11.43;;
80229;SDS011;69540;42.136;24.742;2024-02-23T00:58:36;18.67;;;12.07;;
80229;SDS011;69540;42.136;24.742;2024-02-23T01:01:02;19.88;;;12.07;;
80229;SDS011;69540;42.136;24.742;2024-02-23T01:03:28;15.48;;;12.38;;
80229;SDS011;69540;42.136;24.742;2024-02-23T01:05:53;16.05;;;12.55;;
80229;SDS011;69540;42.136;24.742;2024-02-23T01:08:19;17.30;;;12.18;;
80229;SDS011;69540;42.136;24.742;2024-02-23T01:10:45;15.93;;;12.10;;
80229;SDS011;69540;42.136;24.742;2024-02-23T01:13:11;17.20;;;12.18;;
80229;SDS011;69540;42.136;24.742;2024-02-23T01:15:36;18.67;;;12.85;;
80229;SDS011;69540;42.136;24.742;2024-02-23T01:18:03;16.17;;;12.82;;
80229;SDS011;69540;42.136;24.742;2024-02-23T01:20:31;18.73;;;13.30;;
80229;SDS011;69540;42.136;24.742;2024-02-23T01:22:56;17.75;;;11.93;;
80229;SDS011;69540;42.136;24.742;2024-02-23T01:25:22;16.63;;;12.52;;
80229;SDS011;69540;42.136;24.742;2024-02-23T01:27:48;17.10;;;12.82;;
80229;SDS011;69540;42.136;24.742;2024-02-23T01:30:14;25.77;;;12.27;;
80229;SDS011;69540;42.136;24.742;2024-02-23T01:32:39;18.92;;;12.77;;
80229;SDS011;69540;42.136;24.742;2024-02-23T01:35:05;16.55;;;12.35;;
80229;SDS011;69540;42.136;24.742;2024-02-23T01:37:33;18.13;;;12.15;;
80229;SDS011;69540;42.136;24.742;2024-02-23T01:39:59;17.65;;;12.18;;
80229;SDS011;69540;42.136;24.742;2024-02-23T01:42:25;17.88;;;12.40;;
80229;SDS011;69540;42.136;24.742;2024-02-23T01:44:51;17.65;;;12.20;;
80229;SDS011;69540;42.136;24.742;2024-02-23T01:47:17;15.65;;;11.77;;
80229;SDS011;69540;42.136;24.742;2024-02-23T01:49:44;17.45;;;11.57;;
80229;SDS011;69540;42.136;24.742;2024-02-23T01:52:12;16.42;;;11.52;;
80229;SDS011;69540;42.136;24.742;2024-02-23T01:54:39;15.65;;;10.95;;
80229;SDS011;69540;42.136;24.742;2024-02-23T01:57:05;15.43;;;11.30;;
80229;SDS011;69540;42.136;24.742;2024-02-23T01:59:33;13.75;;;10.90;;
80229;SDS011;69540;42.136;24.742;2024-02-23T02:02:02;13.95;;;11.00;;
80229;SDS011;69540;42.136;24.742;2024-02-23T02:04:29;14.07;;;11.02;;
80229;SDS011;69540;42.136;24.742;2024-02-23T02:06:54;13.00;;;9.77;;
80229;SDS011;69540;42.136;24.742;2024-02-23T02:09:21;11.57;;;9.88;;
80229;SDS011;69540;42.136;24.742;2024-02-23T02:11:47;11.73;;;10.07;;
80229;SDS011;69540;42.136;24.742;2024-02-23T02:14:13;13.48;;;10.80;;
80229;SDS011;69540;42.136;24.742;2024-02-23T02:16:40;13.02;;;10.38;;
80229;SDS011;69540;42.136;24.742;2024-02-23T02:19:05;13.00;;;10.50;;
80229;SDS011;69540;42.136;24.742;2024-02-23T02:21:32;12.80;;;10.20;;
80229;SDS011;69540;42.136;24.742;2024-02-23T02:23:58;12.10;;;10.50;;
80229;SDS011;69540;42.136;24.742;2024-02-23T02:26:24;14.10;;;10.80;;
80229;SDS011;69540;42.136;24.742;2024-02-23T02:28:50;14.43;;;11.43;;
80229;SDS011;69540;42.136;24.742;2024-02-23T02:31:15;17.98;;;11.82;;
80229;SDS011;69540;42.136;24.742;2024-02-23T02:33:41;15.23;;;11.40;;
80229;SDS011;69540;42.136;24.742;2024-02-23T02:36:07;14.38;;;11.27;;
80229;SDS011;69540;42.136;24.742;2024-02-23T02:38:33;15.07;;;10.65;;
80229;SDS011;69540;42.136;24.742;2024-02-23T02:40:59;14.75;;;10.95;;
80229;SDS011;69540;42.136;24.742;2024-02-23T02:43:27;14.88;;;11.23;;
80229;SDS011;69540;42.136;24.742;2024-02-23T02:45:53;13.98;;;11.05;;
80229;SDS011;69540;42.136;24.742;2024-02-23T02:48:19;15.80;;;11.68;;
80229;SDS011;69540;42.136;24.742;2024-02-23T02:50:45;14.88;;;11.98;;
80229;SDS011;69540;42.136;24.742;2024-02-23T02:53:10;17.33;;;13.02;;
80229;SDS011;69540;42.136;24.742;2024-02-23T02:55:36;18.40;;;12.82;;
80229;SDS011;69540;42.136;24.742;2024-02-23T02:58:06;23.85;;;14.13;;
80229;SDS011;69540;42.136;24.742;2024-02-23T03:00:32;17.88;;;13.13;;
80229;SDS011;69540;42.136;24.742;2024-02-23T03:02:58;17.13;;;13.63;;
80229;SDS011;69540;42.136;24.742;2024-02-23T03:05:24;17.90;;;14.23;;
80229;SDS011;69540;42.136;24.742;2024-02-23T03:07:50;18.45;;;14.45;;
80229;SDS011;69540;42.136;24.742;2024-02-23T03:10:15;18.50;;;14.20;;
80229;SDS011;69540;42.136;24.742;2024-02-23T03:12:41;17.17;;;14.05;;
80229;SDS011;69540;42.136;24.742;2024-02-23T03:15:07;20.45;;;14.07;;
80229;SDS011;69540;42.136;24.742;2024-02-23T03:17:34;17.70;;;13.27;;
80229;SDS011;69540;42.136;24.742;2024-02-23T03:20:00;15.05;;;12.02;;
80229;SDS011;69540;42.136;24.742;2024-02-23T03:22:26;16.50;;;12.25;;
80229;SDS011;69540;42.136;24.742;2024-02-23T03:24:52;15.43;;;10.75;;
80229;SDS011;69540;42.136;24.742;2024-02-23T03:27:18;14.20;;;11.20;;
80229;SDS011;69540;42.136;24.742;2024-02-23T03:29:44;16.08;;;11.00;;
80229;SDS011;69540;42.136;24.742;2024-02-23T03:32:10;14.40;;;10.85;;
80229;SDS011;69540;42.136;24.742;2024-02-23T03:34:36;12.95;;;10.70;;
80229;SDS011;69540;42.136;24.742;2024-02-23T03:37:02;15.38;;;11.52;;
80229;SDS011;69540;42.136;24.742;2024-02-23T03:39:28;16.67;;;11.13;;
80229;SDS011;69540;42.136;24.742;2024-02-23T03:41:54;15.02;;;11.77;;
80229;SDS011;69540;42.136;24.742;2024-02-23T03:44:19;16.40;;;11.77;;
80229;SDS011;69540;42.136;24.742;2024-02-23T03:46:45;14.75;;;11.52;;
80229;SDS011;69540;42.136;24.742;2024-02-23T03:49:11;13.88;;;11.50;;
80229;SDS011;69540;42.136;24.742;2024-02-23T03:51:37;17.90;;;12.52;;
80229;SDS011;69540;42.136;24.742;2024-02-23T03:54:04;16.58;;;12.10;;
80229;SDS011;69540;42.136;24.742;2024-02-23T03:56:37;15.00;;;11.93;;
80229;SDS011;69540;42.136;24.742;2024-02-23T03:59:06;14.52;;;10.98;;
80229;SDS011;69540;42.136;24.742;2024-02-23T04:01:39;14.40;;;11.55;;
80229;SDS011;69540;42.136;24.742;2024-02-23T04:04:04;17.05;;;11.60;;
80229;SDS011;69540;42.136;24.742;2024-02-23T04:06:30;18.38;;;12.45;;
80229;SDS011;69540;42.136;24.742;2024-02-23T04:08:56;15.02;;;12.07;;
80229;SDS011;69540;42.136;24.742;2024-02-23T04:11:22;15.98;;;12.35;;
80229;SDS011;69540;42.136;24.742;2024-02-23T04:13:48;16.40;;;12.70;;
80229;SDS011;69540;42.136;24.742;2024-02-23T04:16:13;15.50;;;12.02;;
80229;SDS011;69540;42.136;24.742;2024-02-23T04:18:39;17.00;;;13.07;;
80229;SDS011;69540;42.136;24.742;2024-02-23T04:21:05;17.17;;;12.93;;
80229;SDS011;69540;42.136;24.742;2024-02-23T04:23:30;18.05;;;13.07;;
80229;SDS011;69540;42.136;24.742;2024-02-23T04:25:56;17.55;;;13.13;;
80229;SDS011;69540;42.136;24.742;2024-02-23T04:28:22;18.50;;;13.45;;
80229;SDS011;69540;42.136;24.742;2024-02-23T04:30:48;17.13;;;13.35;;
80229;SDS011;69540;42.136;24.742;2024-02-23T04:33:13;19.13;;;13.30;;
80229;SDS011;69540;42.136;24.742;2024-02-23T04:35:39;18.30;;;13.52;;
80229;SDS011;69540;42.136;24.742;2024-02-23T04:38:05;16.67;;;13.05;;
80229;SDS011;69540;42.136;24.742;2024-02-23T04:40:30;16.23;;;13.52;;
80229;SDS011;69540;42.136;24.742;2024-02-23T04:42:56;16.90;;;13.80;;
80229;SDS011;69540;42.136;24.742;2024-02-23T04:45:22;17.90;;;13.85;;
80229;SDS011;69540;42.136;24.742;2024-02-23T04:47:47;20.77;;;14.07;;
80229;SDS011;69540;42.136;24.742;2024-02-23T04:50:13;18.77;;;14.05;;
80229;SDS011;69540;42.136;24.742;2024-02-23T04:52:39;18.67;;;14.48;;
80229;SDS011;69540;42.136;24.742;2024-02-23T04:55:05;20.85;;;15.30;;
80229;SDS011;69540;42.136;24.742;2024-02-23T04:57:31;20.30;;;14.73;;
80229;SDS011;69540;42.136;24.742;2024-02-23T04:59:57;19.83;;;15.43;;
80229;SDS011;69540;42.136;24.742;2024-02-23T05:02:23;20.00;;;14.82;;
80229;SDS011;69540;42.136;24.742;2024-02-23T05:04:48;22.55;;;15.65;;
80229;SDS011;69540;42.136;24.742;2024-02-23T05:07:14;22.15;;;15.02;;
80229;SDS011;69540;42.136;24.742;2024-02-23T05:09:40;19.00;;;14.50;;
80229;SDS011;69540;42.136;24.742;2024-02-23T05:12:06;21.05;;;16.23;;
80229;SDS011;69540;42.136;24.742;2024-02-23T05:14:33;21.58;;;15.32;;
80229;SDS011;69540;42.136;24.742;2024-02-23T05:16:58;22.88;;;15.48;;
80229;SDS011;69540;42.136;24.742;2024-02-23T05:19:24;23.55;;;16.23;;
80229;SDS011;69540;42.136;24.742;2024-02-23T05:21:50;22.63;;;15.50;;
80229;SDS011;69540;42.136;24.742;2024-02-23T05:24:15;22.40;;;16.02;;
80229;SDS011;69540;42.136;24.742;2024-02-23T05:26:41;22.10;;;15.52;;
80229;SDS011;69540;42.136;24.742;2024-02-23T05:29:09;21.42;;;15.50;;
80229;SDS011;69540;42.136;24.742;2024-02-23T05:31:45;22.13;;;16.77;;
80229;SDS011;69540;42.136;24.742;2024-02-23T05:34:13;21.23;;;15.43;;
80229;SDS011;69540;42.136;24.742;2024-02-23T05:36:38;22.38;;;15.88;;
80229;SDS011;69540;42.136;24.742;2024-02-23T05:39:04;20.98;;;14.80;;
80229;SDS011;69540;42.136;24.742;2024-02-23T05:41:32;23.00;;;15.43;;
80229;SDS011;69540;42.136;24.742;2024-02-23T05:43:58;26.27;;;15.98;;
80229;SDS011;69540;42.136;24.742;2024-02-23T05:46:24;22.10;;;15.68;;
80229;SDS011;69540;42.136;24.742;2024-02-23T05:48:49;20.95;;;15.85;;
80229;SDS011;69540;42.136;24.742;2024-02-23T05:51:15;19.15;;;16.02;;
80229;SDS011;69540;42.136;24.742;2024-02-23T05:53:41;20.17;;;14.98;;
80229;SDS011;69540;42.136;24.742;2024-02-23T05:56:06;23.23;;;15.77;;
80229;SDS011;69540;42.136;24.742;2024-02-23T05:58:32;21.58;;;16.38;;
80229;SDS011;69540;42.136;24.742;2024-02-23T06:00:58;22.35;;;16.13;;
80229;SDS011;69540;42.136;24.742;2024-02-23T06:03:24;24.40;;;15.85;;
80229;SDS011;69540;42.136;24.742;2024-02-23T06:05:49;24.02;;;16.48;;
80229;SDS011;69540;42.136;24.742;2024-02-23T06:08:15;21.30;;;15.18;;
80229;SDS011;69540;42.136;24.742;2024-02-23T06:10:41;20.73;;;16.02;;
80229;SDS011;69540;42.136;24.742;2024-02-23T06:13:08;19.58;;;15.95;;
80229;SDS011;69540;42.136;24.742;2024-02-23T06:15:33;22.02;;;15.63;;
80229;SDS011;69540;42.136;24.742;2024-02-23T06:17:59;22.45;;;15.48;;
80229;SDS011;69540;42.136;24.742;2024-02-23T06:20:25;20.17;;;16.55;;
80229;SDS011;69540;42.136;24.742;2024-02-23T06:22:50;18.42;;;15.00;;
80229;SDS011;69540;42.136;24.742;2024-02-23T06:25:16;20.02;;;15.40;;
80229;SDS011;69540;42.136;24.742;2024-02-23T06:27:42;22.15;;;14.93;;
80229;SDS011;69540;42.136;24.742;2024-02-23T06:30:08;19.10;;;14.05;;
80229;SDS011;69540;42.136;24.742;2024-02-23T06:32:36;18.73;;;14.55;;
80229;SDS011;69540;42.136;24.742;2024-02-23T06:35:01;20.27;;;14.60;;
80229;SDS011;69540;42.136;24.742;2024-02-23T06:37:28;18.05;;;13.57;;
80229;SDS011;69540;42.136;24.742;2024-02-23T06:39:53;18.48;;;12.73;;
80229;SDS011;69540;42.136;24.742;2024-02-23T06:42:22;18.00;;;13.10;;
80229;SDS011;69540;42.136;24.742;2024-02-23T06:44:48;15.10;;;11.90;;
80229;SDS011;69540;42.136;24.742;2024-02-23T06:47:14;14.55;;;11.50;;
80229;SDS011;69540;42.136;24.742;2024-02-23T06:49:43;17.10;;;11.73;;
80229;SDS011;69540;42.136;24.742;2024-02-23T06:52:09;13.38;;;10.88;;
80229;SDS011;69540;42.136;24.742;2024-02-23T06:54:36;15.68;;;11.15;;
80229;SDS011;69540;42.136;24.742;2024-02-23T06:57:02;15.95;;;11.48;;
80229;SDS011;69540;42.136;24.742;2024-02-23T06:59:28;15.10;;;11.90;;
80229;SDS011;69540;42.136;24.742;2024-02-23T07:01:54;17.52;;;12.88;;
80229;SDS011;69540;42.136;24.742;2024-02-23T07:04:20;13.73;;;11.48;;
80229;SDS011;69540;42.136;24.742;2024-02-23T07:06:46;17.13;;;12.23;;
80229;SDS011;69540;42.136;24.742;2024-02-23T07:09:12;16.13;;;12.80;;
80229;SDS011;69540;42.136;24.742;2024-02-23T07:11:38;17.50;;;12.38;;
80229;SDS011;69540;42.136;24.742;2024-02-23T07:14:06;14.48;;;12.00;;
80229;SDS011;69540;42.136;24.742;2024-02-23T07:16:37;15.48;;;11.77;;
80229;SDS011;69540;42.136;24.742;2024-02-23T07:19:04;13.88;;;10.10;;
80229;SDS011;69540;42.136;24.742;2024-02-23T07:21:30;14.68;;;10.60;;
80229;SDS011;69540;42.136;24.742;2024-02-23T07:23:55;13.80;;;10.55;;
80229;SDS011;69540;42.136;24.742;2024-02-23T07:26:21;12.30;;;10.43;;
80229;SDS011;69540;42.136;24.742;2024-02-23T07:28:47;11.00;;;9.75;;
80229;SDS011;69540;42.136;24.742;2024-02-23T07:31:14;12.93;;;9.82;;
80229;SDS011;69540;42.136;24.742;2024-02-23T07:33:40;13.18;;;9.20;;
80229;SDS011;69540;42.136;24.742;2024-02-23T07:36:07;11.05;;;9.32;;
80229;SDS011;69540;42.136;24.742;2024-02-23T07:38:38;11.52;;;9.48;;
80229;SDS011;69540;42.136;24.742;2024-02-23T07:41:04;13.45;;;9.65;;
80229;SDS011;69540;42.136;24.742;2024-02-23T07:43:29;13.40;;;9.95;;
80229;SDS011;69540;42.136;24.742;2024-02-23T07:45:55;11.38;;;9.48;;
80229;SDS011;69540;42.136;24.742;2024-02-23T07:48:21;13.00;;;9.48;;
80229;SDS011;69540;42.136;24.742;2024-02-23T07:50:46;11.23;;;9.68;;
80229;SDS011;69540;42.136;24.742;2024-02-23T07:53:12;10.80;;;9.45;;
80229;SDS011;69540;42.136;24.742;2024-02-23T07:55:38;12.10;;;9.80;;
80229;SDS011;69540;42.136;24.742;2024-02-23T07:58:03;10.45;;;9.02;;
80229;SDS011;69540;42.136;24.742;2024-02-23T08:00:29;11.57;;;8.88;;
80229;SDS011;69540;42.136;24.742;2024-02-23T08:02:55;12.85;;;9.23;;
80229;SDS011;69540;42.136;24.742;2024-02-23T08:05:24;9.70;;;8.73;;
80229;SDS011;69540;42.136;24.742;2024-02-23T08:07:50;8.38;;;7.57;;
80229;SDS011;69540;42.136;24.742;2024-02-23T08:10:15;8.30;;;7.43;;
80229;SDS011;69540;42.136;24.742;2024-02-23T08:12:41;8.43;;;7.63;;
80229;SDS011;69540;42.136;24.742;2024-02-23T08:15:07;9.77;;;7.40;;
80229;SDS011;69540;42.136;24.742;2024-02-23T08:17:33;7.70;;;6.90;;
80229;SDS011;69540;42.136;24.742;2024-02-23T08:19:59;8.02;;;7.22;;
80229;SDS011;69540;42.136;24.742;2024-02-23T08:22:24;7.47;;;6.78;;
80229;SDS011;69540;42.136;24.742;2024-02-23T08:24:50;6.90;;;6.30;;
80229;SDS011;69540;42.136;24.742;2024-02-23T08:27:16;7.65;;;6.95;;
80229;SDS011;69540;42.136;24.742;2024-02-23T08:29:42;7.70;;;6.90;;
80229;SDS011;69540;42.136;24.742;2024-02-23T08:32:07;7.05;;;6.45;;
80229;SDS011;69540;42.136;24.742;2024-02-23T08:34:33;7.35;;;6.50;;
80229;SDS011;69540;42.136;24.742;2024-02-23T08:37:00;7.13;;;6.53;;
80229;SDS011;69540;42.136;24.742;2024-02-23T08:39:26;6.95;;;6.25;;
80229;SDS011;69540;42.136;24.742;2024-02-23T08:41:52;7.38;;;6.60;;
80229;SDS011;69540;42.136;24.742;2024-02-23T08:44:18;7.05;;;6.35;;
80229;SDS011;69540;42.136;24.742;2024-02-23T08:46:44;7.13;;;6.50;;
80229;SDS011;69540;42.136;24.742;2024-02-23T08:49:09;7.28;;;6.60;;
80229;SDS011;69540;42.136;24.742;2024-02-23T08:51:35;7.65;;;6.85;;
80229;SDS011;69540;42.136;24.742;2024-02-23T08:54:01;8.82;;;7.35;;
80229;SDS011;69540;42.136;24.742;2024-02-23T08:56:29;9.48;;;7.03;;
80229;SDS011;69540;42.136;24.742;2024-02-23T08:58:55;8.00;;;7.28;;
80229;SDS011;69540;42.136;24.742;2024-02-23T09:01:21;8.07;;;7.25;;
80229;SDS011;69540;42.136;24.742;2024-02-23T09:03:47;8.63;;;7.82;;
80229;SDS011;69540;42.136;24.742;2024-02-23T09:06:13;10.65;;;8.63;;
80229;SDS011;69540;42.136;24.742;2024-02-23T09:08:38;10.80;;;8.40;;
80229;SDS011;69540;42.136;24.742;2024-02-23T09:11:06;9.93;;;8.88;;
80229;SDS011;69540;42.136;24.742;2024-02-23T09:13:31;9.98;;;9.00;;
80229;SDS011;69540;42.136;24.742;2024-02-23T09:15:57;9.77;;;8.77;;
80229;SDS011;69540;42.136;24.742;2024-02-23T09:18:23;11.57;;;9.90;;
80229;SDS011;69540;42.136;24.742;2024-02-23T09:20:49;10.02;;;9.02;;
80229;SDS011;69540;42.136;24.742;2024-02-23T09:23:14;10.68;;;9.32;;
80229;SDS011;69540;42.136;24.742;2024-02-23T09:25:40;12.07;;;10.40;;
80229;SDS011;69540;42.136;24.742;2024-02-23T09:28:06;13.15;;;10.23;;
80229;SDS011;69540;42.136;24.742;2024-02-23T09:30:32;11.20;;;9.88;;
80229;SDS011;69540;42.136;24.742;2024-02-23T09:32:58;11.13;;;9.80;;
80229;SDS011;69540;42.136;24.742;2024-02-23T09:35:24;12.75;;;10.65;;
80229;SDS011;69540;42.136;24.742;2024-02-23T09:37:49;12.05;;;10.25;;
80229;SDS011;69540;42.136;24.742;2024-02-23T09:40:15;14.48;;;11.52;;
80229;SDS011;69540;42.136;24.742;2024-02-23T09:42:41;12.82;;;10.30;;
80229;SDS011;69540;42.136;24.742;2024-02-23T09:45:08;12.98;;;10.05;;
80229;SDS011;69540;42.136;24.742;2024-02-23T09:47:36;12.95;;;10.63;;
80229;SDS011;69540;42.136;24.742;2024-02-23T09:50:03;11.98;;;10.57;;
80229;SDS011;69540;42.136;24.742;2024-02-23T09:52:30;12.75;;;10.60;;
80229;SDS011;69540;42.136;24.742;2024-02-23T09:54:57;11.73;;;10.52;;
80229;SDS011;69540;42.136;24.742;2024-02-23T09:57:23;11.20;;;10.00;;
80229;SDS011;69540;42.136;24.742;2024-02-23T09:59:49;12.60;;;10.23;;
80229;SDS011;69540;42.136;24.742;2024-02-23T10:02:16;12.77;;;9.90;;
80229;SDS011;69540;42.136;24.742;2024-02-23T10:04:43;12.48;;;10.35;;
80229;SDS011;69540;42.136;24.742;2024-02-23T10:07:09;10.65;;;9.52;;
80229;SDS011;69540;42.136;24.742;2024-02-23T10:09:35;13.73;;;10.50;;
80229;SDS011;69540;42.136;24.742;2024-02-23T10:12:02;11.30;;;9.77;;
80229;SDS011;69540;42.136;24.742;2024-02-23T10:14:28;10.95;;;9.13;;
80229;SDS011;69540;42.136;24.742;2024-02-23T10:16:54;10.43;;;9.38;;
80229;SDS011;69540;42.136;24.742;2024-02-23T10:19:20;10.65;;;9.55;;
80229;SDS011;69540;42.136;24.742;2024-02-23T10:21:46;10.65;;;9.27;;
80229;SDS011;69540;42.136;24.742;2024-02-23T10:24:12;9.95;;;8.85;;
80229;SDS011;69540;42.136;24.742;2024-02-23T10:26:41;10.20;;;9.20;;
80229;SDS011;69540;42.136;24.742;2024-02-23T10:29:06;11.77;;;9.00;;
80229;SDS011;69540;42.136;24.742;2024-02-23T10:31:34;9.95;;;8.90;;
80229;SDS011;69540;42.136;24.742;2024-02-23T10:34:07;10.52;;;9.43;;
80229;SDS011;69540;42.136;24.742;2024-02-23T10:36:42;11.05;;;9.15;;
80229;SDS011;69540;42.136;24.742;2024-02-23T10:39:08;9.75;;;8.75;;
80229;SDS011;69540;42.136;24.742;2024-02-23T10:41:35;10.00;;;8.93;;
80229;SDS011;69540;42.136;24.742;2024-02-23T10:44:04;10.77;;;9.40;;
80229;SDS011;69540;42.136;24.742;2024-02-23T10:46:32;11.32;;;9.95;;
80229;SDS011;69540;42.136;24.742;2024-02-23T10:48:59;13.88;;;9.43;;
80229;SDS011;69540;42.136;24.742;2024-02-23T10:51:26;10.35;;;9.23;;
80229;SDS011;69540;42.136;24.742;2024-02-23T10:53:52;10.77;;;9.43;;
80229;SDS011;69540;42.136;24.742;2024-02-23T10:56:18;10.90;;;9.10;;
80229;SDS011;69540;42.136;24.742;2024-02-23T10:58:44;10.00;;;9.00;;
80229;SDS011;69540;42.136;24.742;2024-02-23T11:01:10;10.82;;;9.18;;
80229;SDS011;69540;42.136;24.742;2024-02-23T11:03:38;11.48;;;9.35;;
80229;SDS011;69540;42.136;24.742;2024-02-23T11:06:07;9.85;;;8.85;;
80229;SDS011;69540;42.136;24.742;2024-02-23T11:08:33;10.02;;;8.77;;
80229;SDS011;69540;42.136;24.742;2024-02-23T11:11:07;9.57;;;8.57;;
80229;SDS011;69540;42.136;24.742;2024-02-23T11:13:35;11.18;;;8.40;;
80229;SDS011;69540;42.136;24.742;2024-02-23T11:16:04;8.90;;;7.78;;
80229;SDS011;69540;42.136;24.742;2024-02-23T11:18:31;10.13;;;9.13;;
80229;SDS011;69540;42.136;24.742;2024-02-23T11:21:00;10.15;;;8.77;;
80229;SDS011;69540;42.136;24.742;2024-02-23T11:23:47;10.93;;;7.70;;
80229;SDS011;69540;42.136;24.742;2024-02-23T11:26:14;9.80;;;7.88;;
80229;SDS011;69540;42.136;24.742;2024-02-23T11:28:49;11.98;;;9.05;;
80229;SDS011;69540;42.136;24.742;2024-02-23T11:31:15;10.77;;;7.68;;
80229;SDS011;69540;42.136;24.742;2024-02-23T11:33:47;9.65;;;7.72;;
80229;SDS011;69540;42.136;24.742;2024-02-23T11:36:21;8.88;;;7.20;;
80229;SDS011;69540;42.136;24.742;2024-02-23T11:39:07;9.23;;;7.90;;
80229;SDS011;69540;42.136;24.742;2024-02-23T11:41:37;10.93;;;8.55;;
80229;SDS011;69540;42.136;24.742;2024-02-23T11:44:04;9.68;;;8.75;;
80229;SDS011;69540;42.136;24.742;2024-02-23T11:46:32;9.90;;;8.45;;
80229;SDS011;69540;42.136;24.742;2024-02-23T11:48:57;9.60;;;8.60;;
80229;SDS011;69540;42.136;24.742;2024-02-23T11:51:25;10.35;;;8.45;;
80229;SDS011;69540;42.136;24.742;2024-02-23T11:53:55;9.52;;;8.63;;
80229;SDS011;69540;42.136;24.742;2024-02-23T11:56:25;10.15;;;8.98;;
80229;SDS011;69540;42.136;24.742;2024-02-23T11:58:51;9.13;;;8.18;;
80229;SDS011;69540;42.136;24.742;2024-02-23T12:01:19;8.88;;;7.97;;
80229;SDS011;69540;42.136;24.742;2024-02-23T12:03:44;8.57;;;7.55;;
80229;SDS011;69540;42.136;24.742;2024-02-23T12:06:10;8.35;;;7.57;;
80229;SDS011;69540;42.136;24.742;2024-02-23T12:08:36;9.15;;;7.75;;
80229;SDS011;69540;42.136;24.742;2024-02-23T12:11:06;9.88;;;8.70;;
80229;SDS011;69540;42.136;24.742;2024-02-23T12:13:36;10.45;;;8.48;;
80229;SDS011;69540;42.136;24.742;2024-02-23T12:16:02;10.02;;;8.85;;
80229;SDS011;69540;42.136;24.742;2024-02-23T12:18:28;10.00;;;8.68;;
80229;SDS011;69540;42.136;24.742;2024-02-23T12:21:14;9.55;;;8.63;;
80229;SDS011;69540;42.136;24.742;2024-02-23T12:23:48;10.25;;;8.50;;
80229;SDS011;69540;42.136;24.742;2024-02-23T12:26:15;9.13;;;8.10;;
80229;SDS011;69540;42.136;24.742;2024-02-23T12:28:43;9.35;;;8.18;;
80229;SDS011;69540;42.136;24.742;2024-02-23T12:31:09;8.95;;;8.10;;
80229;SDS011;69540;42.136;24.742;2024-02-23T12:33:36;8.75;;;7.57;;
80229;SDS011;69540;42.136;24.742;2024-02-23T12:36:03;8.40;;;7.53;;
80229;SDS011;69540;42.136;24.742;2024-02-23T12:38:29;8.23;;;6.90;;
80229;SDS011;69540;42.136;24.742;2024-02-23T12:40:56;8.43;;;7.18;;
80229;SDS011;69540;42.136;24.742;2024-02-23T12:43:22;7.88;;;7.05;;
80229;SDS011;69540;42.136;24.742;2024-02-23T12:45:50;7.53;;;6.72;;
80229;SDS011;69540;42.136;24.742;2024-02-23T12:48:19;8.65;;;7.20;;
80229;SDS011;69540;42.136;24.742;2024-02-23T12:50:46;8.70;;;7.13;;
80229;SDS011;69540;42.136;24.742;2024-02-23T12:56:05;7.40;;;6.70;;
80229;SDS011;69540;42.136;24.742;2024-02-23T12:58:35;8.18;;;7.03;;
80229;SDS011;69540;42.136;24.742;2024-02-23T13:01:01;9.35;;;8.07;;
80229;SDS011;69540;42.136;24.742;2024-02-23T13:03:27;7.78;;;6.97;;
80229;SDS011;69540;42.136;24.742;2024-02-23T13:05:56;9.35;;;7.45;;
80229;SDS011;69540;42.136;24.742;2024-02-23T13:08:22;7.43;;;6.63;;
80229;SDS011;69540;42.136;24.742;2024-02-23T13:10:49;6.65;;;5.93;;
80229;SDS011;69540;42.136;24.742;2024-02-23T13:13:15;7.43;;;6.72;;
80229;SDS011;69540;42.136;24.742;2024-02-23T13:15:42;7.55;;;6.80;;
80229;SDS011;69540;42.136;24.742;2024-02-23T13:18:11;8.20;;;6.22;;
80229;SDS011;69540;42.136;24.742;2024-02-23T13:20:37;7.25;;;6.55;;
80229;SDS011;69540;42.136;24.742;2024-02-23T13:23:04;7.13;;;6.07;;
80229;SDS011;69540;42.136;24.742;2024-02-23T13:25:31;7.28;;;6.30;;
80229;SDS011;69540;42.136;24.742;2024-02-23T13:27:57;8.93;;;6.18;;
80229;SDS011;69540;42.136;24.742;2024-02-23T13:30:23;7.47;;;5.55;;
80229;SDS011;69540;42.136;24.742;2024-02-23T13:32:48;6.32;;;5.72;;
80229;SDS011;69540;42.136;24.742;2024-02-23T13:35:14;7.85;;;6.15;;
80229;SDS011;69540;42.136;24.742;2024-02-23T13:37:42;7.15;;;5.40;;
80229;SDS011;69540;42.136;24.742;2024-02-23T13:40:08;7.38;;;5.88;;
80229;SDS011;69540;42.136;24.742;2024-02-23T13:42:34;7.03;;;6.25;;
80229;SDS011;69540;42.136;24.742;2024-02-23T13:45:03;6.07;;;5.47;;
80229;SDS011;69540;42.136;24.742;2024-02-23T13:47:30;6.20;;;5.60;;
80229;SDS011;69540;42.136;24.742;2024-02-23T13:49:55;6.55;;;5.88;;
80229;SDS011;69540;42.136;24.742;2024-02-23T13:52:21;6.90;;;5.88;;
80229;SDS011;69540;42.136;24.742;2024-02-23T13:54:47;7.10;;;5.65;;
80229;SDS011;69540;42.136;24.742;2024-02-23T13:57:12;6.53;;;5.90;;
80229;SDS011;69540;42.136;24.742;2024-02-23T13:59:38;7.57;;;6.80;;
80229;SDS011;69540;42.136;24.742;2024-02-23T14:02:04;5.88;;;5.25;;
80229;SDS011;69540;42.136;24.742;2024-02-23T14:04:29;6.18;;;5.53;;
80229;SDS011;69540;42.136;24.742;2024-02-23T14:06:55;5.82;;;5.25;;
80229;SDS011;69540;42.136;24.742;2024-02-23T14:09:21;6.10;;;4.95;;
80229;SDS011;69540;42.136;24.742;2024-02-23T14:11:47;7.45;;;5.63;;
80229;SDS011;69540;42.136;24.742;2024-02-23T14:14:13;6.25;;;5.60;;
80229;SDS011;69540;42.136;24.742;2024-02-23T14:16:39;6.20;;;5.60;;